createdAt,value
2023-01-05T00:01:16.100Z,1.13
2023-01-05T00:05:18.869Z,3.93
2023-01-05T00:09:21.132Z,0.90
2023-01-05T00:13:33.721Z,2.33
2023-01-05T00:17:46.265Z,1.07
2023-01-05T00:22:01.387Z,1.43
2023-01-05T00:26:01.466Z,1.27
2023-01-05T00:30:03.105Z,1.60
2023-01-05T00:34:03.157Z,2.20
2023-01-05T00:38:05.963Z,1.60
2023-01-05T00:42:06.309Z,1.57
2023-01-05T00:46:06.494Z,1.47
2023-01-05T00:50:08.828Z,1.00
2023-01-05T00:54:11.911Z,2.00
2023-01-05T00:58:12.045Z,1.40
2023-01-05T01:02:13.547Z,2.47
2023-01-05T01:06:13.833Z,0.87
2023-01-05T01:10:16.869Z,0.97
2023-01-05T01:14:17.289Z,0.97
2023-01-05T01:18:17.631Z,0.70
2023-01-05T01:22:18.045Z,1.67
2023-01-05T01:26:21.194Z,0.97
2023-01-05T01:30:21.368Z,0.93
2023-01-05T01:34:23.389Z,0.70
2023-01-05T01:38:23.564Z,1.30
2023-01-05T01:42:26.863Z,1.23
2023-01-05T01:46:30.242Z,0.63
2023-01-05T01:50:36.461Z,0.70
2023-01-05T01:54:36.659Z,1.13
2023-01-05T01:58:40.391Z,0.70
2023-01-05T02:02:41.250Z,0.60
2023-01-05T02:06:42.264Z,0.57
2023-01-05T02:11:05.476Z,0.60
2023-01-05T02:15:27.168Z,1.57
2023-01-05T02:20:25.730Z,1.27
2023-01-05T02:25:09.738Z,0.70
2023-01-05T02:30:01.422Z,0.63
2023-01-05T02:34:26.870Z,2.00
2023-01-05T02:38:39.550Z,0.70
2023-01-05T02:42:44.674Z,2.37
2023-01-05T02:46:46.545Z,1.57
2023-01-05T02:51:06.753Z,0.20
2023-01-05T02:55:16.526Z,0.40
2023-01-05T02:59:26.688Z,0.30
2023-01-05T03:03:36.720Z,1.40
2023-01-05T03:07:45.406Z,0.67
2023-01-05T03:12:12.320Z,0.50
2023-01-05T03:16:18.802Z,0.40
2023-01-05T03:20:24.672Z,0.40
2023-01-05T03:24:42.842Z,0.57
2023-01-05T03:29:03.858Z,0.60
2023-01-05T03:33:30.214Z,0.67
2023-01-05T03:37:38.346Z,3.33
2023-01-05T03:41:42.354Z,1.23
2023-01-05T03:45:47.210Z,0.63
2023-01-05T03:49:54.887Z,0.43
2023-01-05T03:53:55.345Z,0.83
2023-01-05T03:57:58.093Z,0.40
2023-01-05T04:01:58.878Z,0.50
2023-01-05T04:05:59.427Z,0.63
2023-01-05T04:10:02.193Z,1.47
2023-01-05T04:14:05.716Z,0.60
2023-01-05T04:18:07.821Z,0.73
2023-01-05T04:22:08.030Z,1.50
2023-01-05T04:26:08.565Z,0.70
2023-01-05T04:30:14.146Z,0.80
2023-01-05T04:34:14.973Z,1.13
2023-01-05T04:38:17.960Z,1.70
2023-01-05T04:42:18.192Z,0.57
2023-01-05T04:46:27.211Z,0.60
2023-01-05T04:50:30.238Z,0.37
2023-01-05T04:54:32.266Z,2.30
2023-01-05T04:58:32.646Z,1.30
2023-01-05T05:02:36.211Z,1.73
2023-01-05T05:06:36.450Z,0.83
2023-01-05T05:10:36.718Z,0.60
2023-01-05T05:14:36.981Z,0.50
2023-01-05T05:18:39.840Z,0.30
2023-01-05T05:22:44.020Z,0.50
2023-01-05T05:26:47.325Z,1.03
2023-01-05T05:30:47.543Z,0.50
2023-01-05T05:34:50.321Z,0.80
2023-01-05T05:38:50.399Z,0.40
2023-01-05T05:42:50.506Z,0.80
2023-01-05T05:46:50.705Z,0.20
2023-01-05T05:50:53.607Z,0.83
2023-01-05T05:54:53.724Z,0.60
2023-01-05T05:59:00.794Z,1.20
2023-01-05T06:03:01.774Z,0.30
2023-01-05T06:07:04.498Z,2.10
2023-01-05T06:11:04.793Z,0.27
2023-01-05T06:15:04.977Z,0.83
2023-01-05T06:19:05.154Z,1.70
2023-01-05T06:23:07.934Z,0.73
2023-01-05T06:27:08.043Z,3.20
2023-01-05T06:31:08.886Z,0.53
2023-01-05T06:35:10.200Z,0.73
2023-01-05T06:39:12.935Z,1.73
2023-01-05T06:43:13.516Z,2.03
2023-01-05T06:47:14.363Z,4.53
2023-01-05T06:51:14.444Z,4.27
2023-01-05T06:55:17.231Z,4.53
2023-01-05T06:59:17.661Z,4.73
2023-01-05T07:03:17.912Z,5.00
2023-01-05T07:07:20.752Z,7.10
2023-01-05T07:11:23.449Z,4.83
2023-01-05T07:15:23.624Z,4.03
2023-01-05T07:19:23.778Z,6.40
2023-01-05T07:23:23.866Z,5.30
2023-01-05T07:27:26.691Z,6.90
2023-01-05T07:31:26.943Z,6.27
2023-01-05T07:35:27.151Z,7.13
2023-01-05T07:39:27.381Z,5.90
2023-01-05T07:43:30.503Z,9.03
2023-01-05T07:47:31.394Z,8.30
2023-01-05T07:51:31.547Z,10.43
2023-01-05T07:55:31.669Z,7.30
2023-01-05T07:59:34.392Z,9.67
2023-01-05T08:03:35.254Z,10.83
2023-01-05T08:07:35.479Z,10.43
2023-01-05T08:11:35.590Z,11.23
2023-01-05T08:15:38.392Z,11.37
2023-01-05T08:19:38.564Z,9.13
2023-01-05T08:23:40.544Z,11.23
2023-01-05T08:27:40.792Z,10.70
2023-01-05T08:31:44.165Z,11.57
2023-01-05T08:35:45.369Z,12.17
2023-01-05T08:39:46.023Z,12.17
2023-01-05T08:43:46.438Z,10.93
2023-01-05T08:47:49.142Z,10.00
2023-01-05T08:51:49.345Z,12.80
2023-01-05T08:55:51.749Z,12.90
2023-01-05T08:59:51.986Z,12.73
2023-01-05T09:03:54.876Z,16.10
2023-01-05T09:07:55.005Z,11.27
2023-01-05T09:11:55.155Z,12.17
2023-01-05T09:15:55.303Z,14.43
2023-01-05T09:19:58.033Z,11.60
2023-01-05T09:23:58.153Z,10.77
2023-01-05T09:27:58.235Z,11.40
2023-01-05T09:31:58.564Z,12.30
2023-01-05T09:36:01.578Z,10.97
2023-01-05T09:40:01.752Z,12.90
2023-01-05T09:44:08.175Z,14.70
2023-01-05T09:48:08.930Z,9.73
2023-01-05T09:52:14.133Z,9.40
2023-01-05T10:01:07.379Z,8.23
2023-01-05T10:05:09.620Z,12.63
2023-01-05T10:09:20.035Z,8.87
2023-01-05T10:13:31.494Z,7.27
2023-01-05T10:17:41.891Z,8.23
2023-01-05T10:22:00.304Z,8.67
2023-01-05T10:26:15.565Z,9.30
2023-01-05T10:30:25.548Z,10.27
2023-01-05T10:34:43.511Z,8.93
2023-01-05T10:38:58.972Z,7.37
2023-01-05T10:43:44.027Z,13.20
2023-01-05T10:47:46.437Z,10.50
2023-01-05T10:51:54.480Z,10.10
2023-01-05T10:56:06.104Z,9.47
2023-01-05T11:00:17.824Z,7.33
2023-01-05T11:04:37.208Z,8.10
2023-01-05T11:08:38.466Z,10.67
2023-01-05T11:12:38.763Z,10.70
2023-01-05T11:16:41.550Z,7.70
2023-01-05T11:20:41.843Z,6.50
2023-01-05T11:24:41.997Z,9.70
2023-01-05T11:28:46.110Z,8.50
2023-01-05T11:32:50.805Z,7.80
2023-01-05T11:36:59.150Z,8.03
2023-01-05T11:41:04.196Z,9.70
2023-01-05T11:45:10.600Z,8.87
2023-01-05T11:49:13.851Z,6.20
2023-01-05T11:53:29.785Z,8.77
2023-01-05T11:57:30.144Z,8.20
2023-01-05T12:02:01.425Z,6.70
2023-01-05T12:06:23.261Z,13.17
2023-01-05T12:10:55.685Z,9.43
2023-01-05T12:15:26.155Z,7.20
2023-01-05T12:20:04.731Z,7.17
2023-01-05T12:24:55.499Z,9.07
2023-01-05T12:34:44.301Z,9.23
2023-01-05T12:38:57.509Z,9.40
2023-01-05T12:43:07.707Z,7.93
2023-01-05T12:47:36.983Z,9.83
2023-01-05T12:51:46.075Z,10.33
2023-01-05T12:55:52.940Z,8.00
2023-01-05T13:00:06.215Z,10.03
2023-01-05T13:04:15.659Z,6.30
2023-01-05T13:08:23.598Z,8.20
2023-01-05T13:12:24.100Z,10.38
2023-01-05T13:16:32.703Z,9.10
2023-01-05T13:20:43.662Z,8.40
2023-01-05T13:24:55.230Z,9.80
2023-01-05T13:29:00.571Z,8.80
2023-01-05T13:33:45.131Z,10.10
2023-01-05T13:38:42.140Z,6.27
2023-01-05T13:43:13.950Z,9.33
2023-01-05T13:47:46.212Z,8.27
2023-01-05T13:51:59.554Z,6.23
2023-01-05T13:56:05.192Z,8.43
2023-01-05T14:00:12.451Z,6.33
2023-01-05T14:04:24.134Z,11.00
2023-01-05T14:08:42.681Z,9.60
2023-01-05T14:12:51.592Z,9.20
2023-01-05T14:16:54.829Z,10.00
2023-01-05T14:20:56.391Z,8.80
2023-01-05T14:25:00.005Z,5.37
2023-01-05T14:29:00.205Z,8.57
2023-01-05T14:33:08.650Z,7.97
2023-01-05T14:37:19.488Z,8.47
2023-01-05T14:41:28.432Z,10.00
2023-01-05T14:45:35.524Z,9.60
2023-01-05T14:49:40.843Z,8.30
2023-01-05T14:53:47.180Z,12.83
2023-01-05T14:57:58.201Z,13.37
2023-01-05T15:02:03.970Z,18.20
2023-01-05T15:06:20.951Z,10.03
2023-01-05T15:10:49.811Z,12.70
2023-01-05T15:15:44.277Z,13.43
2023-01-05T15:20:08.268Z,12.20
2023-01-05T15:25:01.275Z,10.97
2023-01-05T15:29:52.459Z,14.17
2023-01-05T15:34:07.856Z,17.13
2023-01-05T15:38:24.436Z,11.77
2023-01-05T15:42:32.497Z,14.97
2023-01-05T15:46:36.809Z,14.17
2023-01-05T15:50:48.741Z,9.73
2023-01-05T15:55:03.975Z,16.20
2023-01-05T15:59:06.821Z,16.47
2023-01-05T16:03:24.022Z,16.30
2023-01-05T16:07:26.844Z,14.30
2023-01-05T16:11:33.507Z,15.47
2023-01-05T16:15:41.366Z,14.53
2023-01-05T16:19:46.955Z,17.07
2023-01-05T16:23:58.341Z,16.23
2023-01-05T16:28:03.602Z,14.57
2023-01-05T16:32:04.483Z,15.90
2023-01-05T16:36:16.030Z,16.17
2023-01-05T16:40:25.081Z,10.93
2023-01-05T16:44:25.911Z,14.33
2023-01-05T16:48:50.036Z,7.60
2023-01-05T16:52:55.693Z,11.07
2023-01-05T16:57:02.346Z,14.63
2023-01-05T17:01:27.829Z,16.20
2023-01-05T17:05:31.600Z,11.07
2023-01-05T17:09:35.041Z,14.20
2023-01-05T17:13:45.084Z,14.60
2023-01-05T17:17:45.135Z,15.70
2023-01-05T17:21:49.711Z,20.60
2023-01-05T17:30:22.784Z,18.80
2023-01-05T17:34:23.387Z,25.23
2023-01-05T17:38:23.619Z,19.17
2023-01-05T17:42:36.186Z,19.93
2023-01-05T17:46:43.367Z,14.10
2023-01-05T17:50:43.943Z,12.80
2023-01-05T17:54:44.336Z,16.87
2023-01-05T17:58:44.509Z,19.43
2023-01-05T18:02:47.249Z,23.10
2023-01-05T18:11:11.438Z,19.83
2023-01-05T18:15:14.328Z,17.47
2023-01-05T18:19:17.992Z,17.23
2023-01-05T18:23:18.159Z,20.37
2023-01-05T18:27:19.709Z,21.40
2023-01-05T18:31:20.164Z,16.97
2023-01-05T18:35:23.015Z,21.70
2023-01-05T18:39:23.180Z,22.50
2023-01-05T18:43:23.381Z,20.83
2023-01-05T18:47:23.462Z,17.63
2023-01-05T18:51:26.124Z,16.87
2023-01-05T18:55:26.610Z,20.33
2023-01-05T18:59:27.163Z,15.07
2023-01-05T19:03:27.274Z,15.37
2023-01-05T19:07:29.944Z,18.77
2023-01-05T19:11:30.913Z,14.37
2023-01-05T19:15:30.989Z,15.30
2023-01-05T19:19:31.214Z,19.90
2023-01-05T19:23:34.069Z,22.23
2023-01-05T19:27:34.194Z,19.67
2023-01-05T19:31:34.564Z,16.83
2023-01-05T19:35:34.703Z,25.07
2023-01-05T19:39:37.455Z,19.07
2023-01-05T19:43:40.652Z,21.27
2023-01-05T19:47:41.628Z,21.33
2023-01-05T19:51:41.742Z,21.90
2023-01-05T19:55:44.605Z,21.97
2023-01-05T19:59:44.694Z,22.23
2023-01-05T20:03:46.877Z,26.37
2023-01-05T20:07:46.962Z,16.50
2023-01-05T20:11:54.825Z,21.27
2023-01-05T20:16:04.437Z,19.77
2023-01-05T20:20:04.628Z,22.40
2023-01-05T20:24:06.660Z,26.30
2023-01-05T20:28:09.450Z,33.93
2023-01-05T20:32:13.572Z,20.57
2023-01-05T20:36:13.885Z,21.47
2023-01-05T20:40:14.486Z,24.73
2023-01-05T20:44:21.593Z,23.83
2023-01-05T20:48:21.786Z,19.20
2023-01-05T20:52:21.915Z,27.77
2023-01-05T20:56:26.913Z,20.50
2023-01-05T21:00:29.611Z,27.73
2023-01-05T21:04:32.461Z,22.50
2023-01-05T21:08:32.791Z,30.90
2023-01-05T21:12:32.910Z,23.50
2023-01-05T21:16:40.101Z,19.47
2023-01-05T21:20:44.799Z,21.00
2023-01-05T21:24:45.408Z,29.23
2023-01-05T21:28:47.185Z,25.77
2023-01-05T21:32:50.786Z,23.63
2023-01-05T21:36:51.091Z,27.10
2023-01-05T21:40:51.187Z,25.40
2023-01-05T21:44:51.269Z,29.00
2023-01-05T21:48:53.977Z,23.53
2023-01-05T21:53:06.534Z,19.73
2023-01-05T21:57:07.114Z,23.37
2023-01-05T22:01:07.409Z,25.40
2023-01-05T22:05:11.435Z,25.63
2023-01-05T22:09:11.459Z,25.73
2023-01-05T22:13:11.714Z,23.93
2023-01-05T22:17:12.463Z,19.70
2023-01-05T22:21:15.545Z,15.07
2023-01-05T22:25:15.574Z,20.00
2023-01-05T22:29:16.787Z,20.67
2023-01-05T22:33:16.870Z,21.43
2023-01-05T22:37:19.571Z,20.87
2023-01-05T22:41:22.615Z,18.77
2023-01-05T22:45:22.818Z,21.43
2023-01-05T22:49:23.022Z,23.43
2023-01-05T22:53:25.767Z,18.00
2023-01-05T22:57:25.967Z,26.00
2023-01-05T23:01:28.799Z,18.90
2023-01-05T23:05:29.357Z,20.93
2023-01-05T23:09:32.110Z,16.30
2023-01-05T23:13:32.452Z,17.67
2023-01-05T23:17:32.549Z,27.77
2023-01-05T23:21:33.178Z,16.77
2023-01-05T23:25:36.814Z,20.13
2023-01-05T23:29:37.013Z,14.70
2023-01-05T23:33:39.877Z,21.10
2023-01-05T23:37:39.952Z,18.37
2023-01-05T23:41:42.631Z,19.33
2023-01-05T23:45:43.622Z,19.33
2023-01-05T23:49:43.718Z,20.90
2023-01-05T23:53:45.619Z,15.37
2023-01-05T23:57:48.508Z,16.27
